sensor_id;sensor_type;location;lat;lon;timestamp;pressure;altitude;pressure_sealevel;temperature;humidity
28921;BME280;16035;53.594;9.952;2023-08-07T00:01:52;100386.78;;;17.49;69.08
28921;BME280;16035;53.594;9.952;2023-08-07T00:03:53;100378.69;;;17.44;69.38
28921;BME280;16035;53.594;9.952;2023-08-07T00:05:53;100381.75;;;17.42;69.18
28921;BME280;16035;53.594;9.952;2023-08-07T00:07:55;100380.25;;;17.36;69.01
28921;BME280;16035;53.594;9.952;2023-08-07T00:09:55;100379.78;;;17.34;69.25
28921;BME280;16035;53.594;9.952;2023-08-07T00:11:55;100380.59;;;17.35;69.34
28921;BME280;16035;53.594;9.952;2023-08-07T00:13:57;100383.00;;;17.36;69.21
28921;BME280;16035;53.594;9.952;2023-08-07T00:15:58;100375.09;;;17.35;68.79
28921;BME280;16035;53.594;9.952;2023-08-07T00:17:58;100372.34;;;17.35;68.99
28921;BME280;16035;53.594;9.952;2023-08-07T00:19:58;100375.09;;;17.35;69.11
28921;BME280;16035;53.594;9.952;2023-08-07T00:21:58;100374.59;;;17.33;69.07
28921;BME280;16035;53.594;9.952;2023-08-07T00:23:59;100377.34;;;17.33;68.91
28921;BME280;16035;53.594;9.952;2023-08-07T00:26:00;100370.72;;;17.34;68.84
28921;BME280;16035;53.594;9.952;2023-08-07T00:28:00;100370.72;;;17.34;68.66
28921;BME280;16035;53.594;9.952;2023-08-07T00:30:00;100374.09;;;17.31;68.55
28921;BME280;16035;53.594;9.952;2023-08-07T00:32:01;100377.78;;;17.26;68.01
28921;BME280;16035;53.594;9.952;2023-08-07T00:34:01;100378.41;;;17.23;68.64
28921;BME280;16035;53.594;9.952;2023-08-07T00:36:02;100384.22;;;17.22;67.96
28921;BME280;16035;53.594;9.952;2023-08-07T00:38:03;100386.63;;;17.14;67.95
28921;BME280;16035;53.594;9.952;2023-08-07T00:40:04;100382.38;;;17.08;67.95
28921;BME280;16035;53.594;9.952;2023-08-07T00:42:05;100379.94;;;17.07;68.01
28921;BME280;16035;53.594;9.952;2023-08-07T00:44:05;100372.50;;;17.07;67.97
28921;BME280;16035;53.594;9.952;2023-08-07T00:46:06;100376.69;;;17.05;68.09
28921;BME280;16035;53.594;9.952;2023-08-07T00:48:07;100378.00;;;17.07;68.07
28921;BME280;16035;53.594;9.952;2023-08-07T00:50:07;100374.44;;;17.07;67.98
28921;BME280;16035;53.594;9.952;2023-08-07T00:52:08;100373.66;;;17.06;68.12
28921;BME280;16035;53.594;9.952;2023-08-07T00:54:10;100370.91;;;17.06;67.95
28921;BME280;16035;53.594;9.952;2023-08-07T00:56:11;100375.25;;;17.07;67.84
28921;BME280;16035;53.594;9.952;2023-08-07T00:58:12;100376.38;;;17.06;68.08
28921;BME280;16035;53.594;9.952;2023-08-07T01:00:14;100370.91;;;17.06;68.01
28921;BME280;16035;53.594;9.952;2023-08-07T01:02:16;100375.44;;;17.11;68.00
28921;BME280;16035;53.594;9.952;2023-08-07T01:04:16;100377.06;;;17.12;68.02
28921;BME280;16035;53.594;9.952;2023-08-07T01:06:17;100372.91;;;17.14;67.99
28921;BME280;16035;53.594;9.952;2023-08-07T01:08:17;100380.81;;;17.16;67.93
28921;BME280;16035;53.594;9.952;2023-08-07T01:10:18;100370.94;;;17.15;67.86
28921;BME280;16035;53.594;9.952;2023-08-07T01:12:20;100366.56;;;17.14;68.16
28921;BME280;16035;53.594;9.952;2023-08-07T01:14:51;100371.25;;;17.13;68.11
28921;BME280;16035;53.594;9.952;2023-08-07T01:17:02;100363.81;;;17.14;68.05
28921;BME280;16035;53.594;9.952;2023-08-07T01:19:09;100365.75;;;17.13;67.98
28921;BME280;16035;53.594;9.952;2023-08-07T01:21:19;100355.91;;;17.12;67.99
28921;BME280;16035;53.594;9.952;2023-08-07T01:23:20;100363.66;;;17.10;68.00
28921;BME280;16035;53.594;9.952;2023-08-07T01:25:20;100368.97;;;17.07;68.09
28921;BME280;16035;53.594;9.952;2023-08-07T01:27:36;100366.50;;;17.05;68.14
28921;BME280;16035;53.594;9.952;2023-08-07T01:29:54;100353.44;;;17.02;68.42
28921;BME280;16035;53.594;9.952;2023-08-07T01:32:00;100362.78;;;17.01;68.46
28921;BME280;16035;53.594;9.952;2023-08-07T01:34:04;100361.16;;;17.00;68.61
28921;BME280;16035;53.594;9.952;2023-08-07T01:36:07;100347.94;;;17.02;68.66
28921;BME280;16035;53.594;9.952;2023-08-07T01:38:10;100354.56;;;17.01;68.79
28921;BME280;16035;53.594;9.952;2023-08-07T01:40:12;100349.06;;;17.01;68.83
28921;BME280;16035;53.594;9.952;2023-08-07T01:42:13;100344.69;;;17.00;68.80
28921;BME280;16035;53.594;9.952;2023-08-07T01:44:14;100354.56;;;17.01;68.93
28921;BME280;16035;53.594;9.952;2023-08-07T01:46:14;100351.31;;;16.99;68.81
28921;BME280;16035;53.594;9.952;2023-08-07T01:48:14;100345.00;;;16.99;68.83
28921;BME280;16035;53.594;9.952;2023-08-07T01:50:15;100337.59;;;16.99;69.14
28921;BME280;16035;53.594;9.952;2023-08-07T01:52:15;100343.59;;;17.01;69.10
28921;BME280;16035;53.594;9.952;2023-08-07T01:54:15;100346.81;;;17.03;69.15
28921;BME280;16035;53.594;9.952;2023-08-07T01:56:16;100349.06;;;17.01;69.11
28921;BME280;16035;53.594;9.952;2023-08-07T01:58:16;100351.63;;;16.98;69.12
28921;BME280;16035;53.594;9.952;2023-08-07T02:00:16;100346.75;;;16.95;69.09
28921;BME280;16035;53.594;9.952;2023-08-07T02:02:17;100344.63;;;16.91;69.15
28921;BME280;16035;53.594;9.952;2023-08-07T02:04:17;100344.63;;;16.91;69.21
28921;BME280;16035;53.594;9.952;2023-08-07T02:06:18;100347.38;;;16.91;69.16
28921;BME280;16035;53.594;9.952;2023-08-07T02:08:18;100340.47;;;16.94;69.37
28921;BME280;16035;53.594;9.952;2023-08-07T02:10:18;100344.81;;;16.95;69.49
28921;BME280;16035;53.594;9.952;2023-08-07T02:12:18;100342.88;;;16.96;69.19
28921;BME280;16035;53.594;9.952;2023-08-07T02:14:19;100343.41;;;16.98;69.47
28921;BME280;16035;53.594;9.952;2023-08-07T02:16:19;100342.06;;;16.95;69.35
28921;BME280;16035;53.594;9.952;2023-08-07T02:18:19;100344.81;;;16.95;69.29
28921;BME280;16035;53.594;9.952;2023-08-07T02:20:20;100341.59;;;16.93;69.29
28921;BME280;16035;53.594;9.952;2023-08-07T02:22:20;100339.47;;;16.90;69.29
28921;BME280;16035;53.594;9.952;2023-08-07T02:24:20;100338.97;;;16.88;69.38
28921;BME280;16035;53.594;9.952;2023-08-07T02:26:21;100340.06;;;16.87;69.48
28921;BME280;16035;53.594;9.952;2023-08-07T02:28:21;100332.78;;;16.82;69.41
28921;BME280;16035;53.594;9.952;2023-08-07T02:30:21;100340.22;;;16.82;69.35
28921;BME280;16035;53.594;9.952;2023-08-07T02:32:22;100343.47;;;16.84;69.39
28921;BME280;16035;53.594;9.952;2023-08-07T02:34:22;100335.22;;;16.84;69.40
28921;BME280;16035;53.594;9.952;2023-08-07T02:36:22;100331.69;;;16.83;69.50
28921;BME280;16035;53.594;9.952;2023-08-07T02:38:24;100334.22;;;16.80;69.34
28921;BME280;16035;53.594;9.952;2023-08-07T02:40:25;100331.50;;;16.80;69.15
28921;BME280;16035;53.594;9.952;2023-08-07T02:42:25;100329.88;;;16.79;69.27
28921;BME280;16035;53.594;9.952;2023-08-07T02:44:26;100336.47;;;16.78;69.46
28921;BME280;16035;53.594;9.952;2023-08-07T02:46:26;100329.34;;;16.77;69.30
28921;BME280;16035;53.594;9.952;2023-08-07T02:48:26;100325.00;;;16.76;69.25
28921;BME280;16035;53.594;9.952;2023-08-07T02:50:27;100328.88;;;16.75;69.15
28921;BME280;16035;53.594;9.952;2023-08-07T02:52:29;100335.19;;;16.75;69.08
28921;BME280;16035;53.594;9.952;2023-08-07T02:54:30;100334.66;;;16.73;69.19
28921;BME280;16035;53.594;9.952;2023-08-07T02:56:30;100335.78;;;16.72;69.24
28921;BME280;16035;53.594;9.952;2023-08-07T02:58:30;100342.38;;;16.71;69.26
28921;BME280;16035;53.594;9.952;2023-08-07T03:00:31;100340.44;;;16.72;69.07
28921;BME280;16035;53.594;9.952;2023-08-07T03:02:31;100351.72;;;16.70;69.67
28921;BME280;16035;53.594;9.952;2023-08-07T03:04:31;100352.03;;;16.68;69.30
28921;BME280;16035;53.594;9.952;2023-08-07T03:06:32;100344.91;;;16.67;69.39
28921;BME280;16035;53.594;9.952;2023-08-07T03:08:32;100346.25;;;16.70;69.44
28921;BME280;16035;53.594;9.952;2023-08-07T03:10:32;100336.38;;;16.69;69.72
28921;BME280;16035;53.594;9.952;2023-08-07T03:12:33;100334.66;;;16.73;69.68
28921;BME280;16035;53.594;9.952;2023-08-07T03:14:33;100334.66;;;16.73;69.30
28921;BME280;16035;53.594;9.952;2023-08-07T03:16:33;100339.34;;;16.73;69.50
28921;BME280;16035;53.594;9.952;2023-08-07T03:18:33;100337.09;;;16.75;69.67
28921;BME280;16035;53.594;9.952;2023-08-07T03:20:36;100330.97;;;16.78;69.70
28921;BME280;16035;53.594;9.952;2023-08-07T03:22:37;100329.03;;;16.78;69.57
28921;BME280;16035;53.594;9.952;2023-08-07T03:24:37;100336.78;;;16.76;69.29
28921;BME280;16035;53.594;9.952;2023-08-07T03:26:37;100327.22;;;16.74;69.42
28921;BME280;16035;53.594;9.952;2023-08-07T03:28:39;100339.00;;;16.74;69.59
28921;BME280;16035;53.594;9.952;2023-08-07T03:30:39;100335.47;;;16.74;69.69
28921;BME280;16035;53.594;9.952;2023-08-07T03:32:39;100342.09;;;16.73;69.73
28921;BME280;16035;53.594;9.952;2023-08-07T03:34:41;100344.81;;;16.73;69.90
28921;BME280;16035;53.594;9.952;2023-08-07T03:36:42;100344.22;;;16.76;69.77
28921;BME280;16035;53.594;9.952;2023-08-07T03:38:42;100330.50;;;16.76;69.89
28921;BME280;16035;53.594;9.952;2023-08-07T03:40:42;100337.41;;;16.73;69.86
28921;BME280;16035;53.594;9.952;2023-08-07T03:42:43;100335.97;;;16.76;70.00
28921;BME280;16035;53.594;9.952;2023-08-07T03:44:43;100345.34;;;16.75;70.06
28921;BME280;16035;53.594;9.952;2023-08-07T03:46:43;100346.94;;;16.76;70.02
28921;BME280;16035;53.594;9.952;2023-08-07T03:48:44;100342.75;;;16.78;70.29
28921;BME280;16035;53.594;9.952;2023-08-07T03:50:44;100336.19;;;16.79;70.32
28921;BME280;16035;53.594;9.952;2023-08-07T03:52:44;100333.44;;;16.79;70.09
28921;BME280;16035;53.594;9.952;2023-08-07T03:54:45;100342.94;;;16.82;70.17
28921;BME280;16035;53.594;9.952;2023-08-07T03:56:45;100339.72;;;16.80;70.26
28921;BME280;16035;53.594;9.952;2023-08-07T03:58:46;100334.22;;;16.80;70.45
28921;BME280;16035;53.594;9.952;2023-08-07T04:00:47;100334.22;;;16.80;70.24
28921;BME280;16035;53.594;9.952;2023-08-07T04:02:47;100332.09;;;16.77;70.37
28921;BME280;16035;53.594;9.952;2023-08-07T04:04:47;100338.41;;;16.77;70.44
28921;BME280;16035;53.594;9.952;2023-08-07T04:06:48;100343.09;;;16.77;70.64
28921;BME280;16035;53.594;9.952;2023-08-07T04:08:48;100333.44;;;16.79;70.66
28921;BME280;16035;53.594;9.952;2023-08-07T04:12:59;100333.72;;;16.78;70.68
28921;BME280;16035;53.594;9.952;2023-08-07T04:14:59;100332.63;;;16.79;71.10
28921;BME280;16035;53.594;9.952;2023-08-07T04:17:00;100326.81;;;16.80;70.72
28921;BME280;16035;53.594;9.952;2023-08-07T04:19:00;100329.56;;;16.80;70.71
28921;BME280;16035;53.594;9.952;2023-08-07T04:21:01;100332.31;;;16.80;70.76
28921;BME280;16035;53.594;9.952;2023-08-07T04:23:01;100330.69;;;16.79;70.89
28921;BME280;16035;53.594;9.952;2023-08-07T04:25:02;100323.56;;;16.78;71.01
28921;BME280;16035;53.594;9.952;2023-08-07T04:27:03;100333.72;;;16.78;70.94
28921;BME280;16035;53.594;9.952;2023-08-07T04:29:03;100326.00;;;16.80;71.25
28921;BME280;16035;53.594;9.952;2023-08-07T04:31:04;100330.03;;;16.82;71.21
28921;BME280;16035;53.594;9.952;2023-08-07T04:33:04;100332.50;;;16.84;71.21
28921;BME280;16035;53.594;9.952;2023-08-07T04:35:05;100329.75;;;16.84;71.29
28921;BME280;16035;53.594;9.952;2023-08-07T04:37:06;100338.97;;;16.88;71.36
28921;BME280;16035;53.594;9.952;2023-08-07T04:39:06;100335.59;;;16.91;71.35
28921;BME280;16035;53.594;9.952;2023-08-07T04:41:07;100338.84;;;16.93;71.36
28921;BME280;16035;53.594;9.952;2023-08-07T04:43:07;100336.59;;;16.95;71.47
28921;BME280;16035;53.594;9.952;2023-08-07T04:45:08;100349.38;;;17.00;71.40
28921;BME280;16035;53.594;9.952;2023-08-07T04:47:09;100343.88;;;17.00;71.31
28921;BME280;16035;53.594;9.952;2023-08-07T04:49:10;100337.25;;;17.01;71.52
28921;BME280;16035;53.594;9.952;2023-08-07T04:51:10;100336.97;;;17.02;71.51
28921;BME280;16035;53.594;9.952;2023-08-07T04:53:10;100341.31;;;17.03;71.53
28921;BME280;16035;53.594;9.952;2023-08-07T04:55:11;100344.53;;;17.05;71.55
28921;BME280;16035;53.594;9.952;2023-08-07T04:57:11;100347.63;;;17.04;71.54
28921;BME280;16035;53.594;9.952;2023-08-07T04:59:12;100340.31;;;16.99;71.10
28921;BME280;16035;53.594;9.952;2023-08-07T05:01:12;100342.25;;;16.99;71.43
28921;BME280;16035;53.594;9.952;2023-08-07T05:03:12;100340.66;;;16.98;71.56
28921;BME280;16035;53.594;9.952;2023-08-07T05:05:14;100342.25;;;16.99;71.76
28921;BME280;16035;53.594;9.952;2023-08-07T05:07:15;100343.59;;;17.01;71.57
28921;BME280;16035;53.594;9.952;2023-08-07T05:09:15;100341.31;;;17.03;71.58
28921;BME280;16035;53.594;9.952;2023-08-07T05:11:17;100341.31;;;17.03;71.87
28921;BME280;16035;53.594;9.952;2023-08-07T05:13:17;100339.06;;;17.05;72.03
28921;BME280;16035;53.594;9.952;2023-08-07T05:15:17;100334.56;;;17.09;71.98
28921;BME280;16035;53.594;9.952;2023-08-07T05:17:17;100338.63;;;17.12;72.19
28921;BME280;16035;53.594;9.952;2023-08-07T05:19:18;100340.25;;;17.13;71.74
28921;BME280;16035;53.594;9.952;2023-08-07T05:21:18;100338.00;;;17.15;72.06
28921;BME280;16035;53.594;9.952;2023-08-07T05:23:19;100345.31;;;17.20;71.87
28921;BME280;16035;53.594;9.952;2023-08-07T05:25:19;100335.75;;;17.17;72.12
28921;BME280;16035;53.594;9.952;2023-08-07T05:27:19;100333.66;;;17.23;71.99
28921;BME280;16035;53.594;9.952;2023-08-07T05:29:20;100327.38;;;17.22;71.88
28921;BME280;16035;53.594;9.952;2023-08-07T05:31:20;100324.47;;;17.27;72.03
28921;BME280;16035;53.594;9.952;2023-08-07T05:33:20;100326.41;;;17.27;71.90
28921;BME280;16035;53.594;9.952;2023-08-07T05:35:21;100333.22;;;17.29;71.99
28921;BME280;16035;53.594;9.952;2023-08-07T05:37:21;100328.22;;;17.31;71.88
28921;BME280;16035;53.594;9.952;2023-08-07T05:39:21;100335.03;;;17.34;72.01
28921;BME280;16035;53.594;9.952;2023-08-07T05:41:22;100341.94;;;17.31;72.02
28921;BME280;16035;53.594;9.952;2023-08-07T05:43:22;100339.53;;;17.30;71.94
28921;BME280;16035;53.594;9.952;2023-08-07T05:45:23;100338.53;;;17.26;71.92
28921;BME280;16035;53.594;9.952;2023-08-07T05:47:23;100350.13;;;17.23;71.74
28921;BME280;16035;53.594;9.952;2023-08-07T05:49:23;100345.59;;;17.18;72.00
28921;BME280;16035;53.594;9.952;2023-08-07T05:51:24;100347.25;;;17.19;72.10
28921;BME280;16035;53.594;9.952;2023-08-07T05:53:24;100351.78;;;17.24;72.14
28921;BME280;16035;53.594;9.952;2023-08-07T05:55:24;100353.06;;;17.26;72.17
28921;BME280;16035;53.594;9.952;2023-08-07T05:57:25;100351.94;;;17.27;72.26
28921;BME280;16035;53.594;9.952;2023-08-07T05:59:25;100345.81;;;17.30;71.99
28921;BME280;16035;53.594;9.952;2023-08-07T06:01:26;100344.88;;;17.35;72.07
28921;BME280;16035;53.594;9.952;2023-08-07T06:03:31;100347.63;;;17.35;71.80
28921;BME280;16035;53.594;9.952;2023-08-07T06:05:32;100347.63;;;17.35;71.66
28921;BME280;16035;53.594;9.952;2023-08-07T06:07:32;100340.53;;;17.34;71.58
28921;BME280;16035;53.594;9.952;2023-08-07T06:09:32;100346.00;;;17.34;71.68
28921;BME280;16035;53.594;9.952;2023-08-07T06:11:33;100341.31;;;17.34;71.84
28921;BME280;16035;53.594;9.952;2023-08-07T06:13:34;100351.97;;;17.36;71.49
28921;BME280;16035;53.594;9.952;2023-08-07T06:15:35;100347.00;;;17.38;71.54
28921;BME280;16035;53.594;9.952;2023-08-07T06:17:35;100357.81;;;17.34;71.12
28921;BME280;16035;53.594;9.952;2023-08-07T06:19:35;100342.75;;;17.32;70.90
28921;BME280;16035;53.594;9.952;2023-08-07T06:21:36;100353.75;;;17.32;71.24
28921;BME280;16035;53.594;9.952;2023-08-07T06:23:37;100362.50;;;17.34;71.28
28921;BME280;16035;53.594;9.952;2023-08-07T06:25:37;100362.16;;;17.35;71.10
28921;BME280;16035;53.594;9.952;2023-08-07T06:27:37;100368.16;;;17.37;71.27
28921;BME280;16035;53.594;9.952;2023-08-07T06:29:38;100363.97;;;17.40;71.33
28921;BME280;16035;53.594;9.952;2023-08-07T06:31:38;100361.06;;;17.45;71.28
28921;BME280;16035;53.594;9.952;2023-08-07T06:33:39;100357.72;;;17.48;70.69
28921;BME280;16035;53.594;9.952;2023-08-07T06:35:39;100353.66;;;17.46;70.76
28921;BME280;16035;53.594;9.952;2023-08-07T06:37:40;100363.81;;;17.45;70.60
28921;BME280;16035;53.594;9.952;2023-08-07T06:39:41;100353.66;;;17.46;70.58
28921;BME280;16035;53.594;9.952;2023-08-07T06:41:41;100347.03;;;17.47;70.83
28921;BME280;16035;53.594;9.952;2023-08-07T06:43:41;100348.66;;;17.48;70.83
28921;BME280;16035;53.594;9.952;2023-08-07T06:45:42;100352.06;;;17.53;70.58
28921;BME280;16035;53.594;9.952;2023-08-07T06:47:42;100356.44;;;17.54;70.39
28921;BME280;16035;53.594;9.952;2023-08-07T06:49:42;100349.81;;;17.55;70.46
28921;BME280;16035;53.594;9.952;2023-08-07T06:51:43;100354.00;;;17.53;70.60
28921;BME280;16035;53.594;9.952;2023-08-07T06:53:43;100362.25;;;17.53;70.65
28921;BME280;16035;53.594;9.952;2023-08-07T06:55:44;100364.84;;;17.58;70.40
28921;BME280;16035;53.594;9.952;2023-08-07T06:57:45;100363.59;;;17.64;70.11
28921;BME280;16035;53.594;9.952;2023-08-07T06:59:45;100370.91;;;17.68;69.93
28921;BME280;16035;53.594;9.952;2023-08-07T07:01:46;100369.94;;;17.73;69.57
28921;BME280;16035;53.594;9.952;2023-08-07T07:03:46;100376.13;;;17.79;69.35
28921;BME280;16035;53.594;9.952;2023-08-07T07:05:49;100376.88;;;17.71;68.59
28921;BME280;16035;53.594;9.952;2023-08-07T07:07:49;100381.53;;;17.61;68.49
28921;BME280;16035;53.594;9.952;2023-08-07T07:09:49;100388.91;;;17.52;68.22
28921;BME280;16035;53.594;9.952;2023-08-07T07:11:50;100387.44;;;17.46;67.71
28921;BME280;16035;53.594;9.952;2023-08-07T07:13:51;100387.13;;;17.48;67.94
28921;BME280;16035;53.594;9.952;2023-08-07T07:15:55;100376.78;;;17.53;67.31
28921;BME280;16035;53.594;9.952;2023-08-07T07:17:55;100381.03;;;17.59;67.32
28921;BME280;16035;53.594;9.952;2023-08-07T07:19:55;100387.38;;;17.68;66.84
28921;BME280;16035;53.594;9.952;2023-08-07T07:21:57;100381.63;;;17.79;67.01
28921;BME280;16035;53.594;9.952;2023-08-07T07:23:57;100393.09;;;17.81;66.54
28921;BME280;16035;53.594;9.952;2023-08-07T07:25:57;100403.94;;;17.77;66.37
28921;BME280;16035;53.594;9.952;2023-08-07T07:27:58;100399.88;;;17.75;65.96
28921;BME280;16035;53.594;9.952;2023-08-07T07:29:58;100402.22;;;17.67;65.80
28921;BME280;16035;53.594;9.952;2023-08-07T07:31:58;100434.69;;;17.57;65.58
28921;BME280;16035;53.594;9.952;2023-08-07T07:33:59;100432.59;;;17.31;65.51
28921;BME280;16035;53.594;9.952;2023-08-07T07:35:59;100413.69;;;17.07;66.04
28921;BME280;16035;53.594;9.952;2023-08-07T07:38:01;100417.63;;;16.92;66.98
28921;BME280;16035;53.594;9.952;2023-08-07T07:40:02;100406.81;;;16.96;67.65
28921;BME280;16035;53.594;9.952;2023-08-07T07:42:03;100409.81;;;17.08;67.95
28921;BME280;16035;53.594;9.952;2023-08-07T07:44:05;100404.56;;;17.21;67.91
28921;BME280;16035;53.594;9.952;2023-08-07T07:46:05;100398.00;;;17.30;67.33
28921;BME280;16035;53.594;9.952;2023-08-07T07:48:06;100391.94;;;17.42;67.35
28921;BME280;16035;53.594;9.952;2023-08-07T07:50:08;100397.97;;;17.53;67.36
28921;BME280;16035;53.594;9.952;2023-08-07T07:52:09;100396.69;;;17.59;67.29
28921;BME280;16035;53.594;9.952;2023-08-07T07:54:09;100391.22;;;17.67;67.46
28921;BME280;16035;53.594;9.952;2023-08-07T07:56:09;100391.81;;;17.78;67.19
28921;BME280;16035;53.594;9.952;2023-08-07T07:58:10;100403.16;;;17.94;67.36
28921;BME280;16035;53.594;9.952;2023-08-07T08:00:12;100402.72;;;18.01;66.69
28921;BME280;16035;53.594;9.952;2023-08-07T08:02:13;100395.63;;;18.08;66.64
28921;BME280;16035;53.594;9.952;2023-08-07T08:04:15;100402.25;;;18.16;66.45
28921;BME280;16035;53.594;9.952;2023-08-07T08:06:16;100393.19;;;18.07;65.67
28921;BME280;16035;53.594;9.952;2023-08-07T08:08:16;100403.16;;;17.94;65.03
28921;BME280;16035;53.594;9.952;2023-08-07T08:10:17;100428.69;;;17.77;64.00
28921;BME280;16035;53.594;9.952;2023-08-07T08:12:17;100442.44;;;17.63;64.36
28921;BME280;16035;53.594;9.952;2023-08-07T08:14:17;100434.81;;;17.52;64.51
28921;BME280;16035;53.594;9.952;2023-08-07T08:16:18;100454.78;;;17.43;64.97
28921;BME280;16035;53.594;9.952;2023-08-07T08:18:18;100457.28;;;17.31;65.26
28921;BME280;16035;53.594;9.952;2023-08-07T08:20:18;100445.56;;;17.17;65.68
28921;BME280;16035;53.594;9.952;2023-08-07T08:22:19;100445.50;;;17.08;65.91
28921;BME280;16035;53.594;9.952;2023-08-07T08:24:19;100452.88;;;16.99;66.68
28921;BME280;16035;53.594;9.952;2023-08-07T08:26:20;100459.09;;;16.91;66.93
28921;BME280;16035;53.594;9.952;2023-08-07T08:28:20;100459.94;;;16.78;67.32
28921;BME280;16035;53.594;9.952;2023-08-07T08:30:21;100451.50;;;16.74;67.93
28921;BME280;16035;53.594;9.952;2023-08-07T08:32:21;100444.81;;;16.80;68.12
28921;BME280;16035;53.594;9.952;2023-08-07T08:34:21;100457.78;;;16.88;68.47
28921;BME280;16035;53.594;9.952;2023-08-07T08:36:24;100459.09;;;16.91;68.79
28921;BME280;16035;53.594;9.952;2023-08-07T08:38:25;100461.72;;;16.96;68.81
28921;BME280;16035;53.594;9.952;2023-08-07T08:40:30;100463.03;;;16.99;68.71
28921;BME280;16035;53.594;9.952;2023-08-07T08:42:31;100453.88;;;17.03;68.89
28921;BME280;16035;53.594;9.952;2023-08-07T08:44:33;100454.88;;;17.07;68.79
28921;BME280;16035;53.594;9.952;2023-08-07T08:46:38;100461.50;;;17.06;68.65
28921;BME280;16035;53.594;9.952;2023-08-07T08:48:41;100479.84;;;16.97;68.48
28921;BME280;16035;53.594;9.952;2023-08-07T08:50:45;100485.13;;;16.93;68.95
28921;BME280;16035;53.594;9.952;2023-08-07T08:52:45;100490.91;;;16.92;68.80
28921;BME280;16035;53.594;9.952;2023-08-07T08:54:47;100478.00;;;16.92;68.81
28921;BME280;16035;53.594;9.952;2023-08-07T08:56:47;100496.38;;;16.92;68.69
28921;BME280;16035;53.594;9.952;2023-08-07T08:58:50;100486.53;;;16.91;68.72
28921;BME280;16035;53.594;9.952;2023-08-07T09:00:51;100480.25;;;16.90;68.59
28921;BME280;16035;53.594;9.952;2023-08-07T09:02:51;100491.75;;;16.92;68.57
28921;BME280;16035;53.594;9.952;2023-08-07T09:04:52;100485.72;;;16.90;68.30
28921;BME280;16035;53.594;9.952;2023-08-07T09:06:52;100482.06;;;16.95;68.57
28921;BME280;16035;53.594;9.952;2023-08-07T09:08:53;100493.13;;;17.04;68.46
28921;BME280;16035;53.594;9.952;2023-08-07T09:10:53;100489.31;;;17.13;68.04
28921;BME280;16035;53.594;9.952;2023-08-07T09:13:00;100495.00;;;17.39;67.85
28921;BME280;16035;53.594;9.952;2023-08-07T09:15:02;100480.63;;;17.87;66.92
28921;BME280;16035;53.594;9.952;2023-08-07T09:17:04;100473.19;;;17.88;65.25
28921;BME280;16035;53.594;9.952;2023-08-07T09:19:05;100482.31;;;18.06;65.85
28921;BME280;16035;53.594;9.952;2023-08-07T09:21:06;100464.81;;;18.50;65.31
28921;BME280;16035;53.594;9.952;2023-08-07T09:23:06;100468.59;;;18.80;63.29
28921;BME280;16035;53.594;9.952;2023-08-07T09:25:07;100489.97;;;19.09;62.12
28921;BME280;16035;53.594;9.952;2023-08-07T09:27:09;100466.16;;;18.96;60.82
28921;BME280;16035;53.594;9.952;2023-08-07T09:29:10;100475.41;;;19.00;61.71
28921;BME280;16035;53.594;9.952;2023-08-07T09:31:14;100483.66;;;19.35;61.20
28921;BME280;16035;53.594;9.952;2023-08-07T09:33:15;100477.94;;;19.66;61.16
28921;BME280;16035;53.594;9.952;2023-08-07T09:35:24;100478.59;;;19.54;58.96
28921;BME280;16035;53.594;9.952;2023-08-07T09:37:24;100484.13;;;19.19;55.68
28921;BME280;16035;53.594;9.952;2023-08-07T09:39:24;100494.34;;;19.10;57.13
28921;BME280;16035;53.594;9.952;2023-08-07T09:41:31;100485.28;;;19.27;58.18
28921;BME280;16035;53.594;9.952;2023-08-07T09:43:35;100481.06;;;20.03;58.21
28921;BME280;16035;53.594;9.952;2023-08-07T09:45:39;100481.91;;;20.62;54.51
28921;BME280;16035;53.594;9.952;2023-08-07T09:47:40;100503.03;;;21.30;54.19
28921;BME280;16035;53.594;9.952;2023-08-07T09:49:41;100487.75;;;21.78;52.22
28921;BME280;16035;53.594;9.952;2023-08-07T09:51:46;100475.84;;;22.23;50.57
28921;BME280;16035;53.594;9.952;2023-08-07T09:53:47;100474.56;;;22.44;50.90
28921;BME280;16035;53.594;9.952;2023-08-07T09:55:47;100472.06;;;22.80;50.73
28921;BME280;16035;53.594;9.952;2023-08-07T09:57:48;100478.19;;;23.26;50.34
28921;BME280;16035;53.594;9.952;2023-08-07T09:59:49;100494.88;;;23.69;50.01
28921;BME280;16035;53.594;9.952;2023-08-07T10:01:50;100479.63;;;23.63;48.78
28921;BME280;16035;53.594;9.952;2023-08-07T10:03:51;100477.34;;;23.81;48.80
28921;BME280;16035;53.594;9.952;2023-08-07T10:05:52;100505.09;;;23.81;46.55
28921;BME280;16035;53.594;9.952;2023-08-07T10:07:53;100492.00;;;23.38;45.84
28921;BME280;16035;53.594;9.952;2023-08-07T10:09:55;100500.63;;;23.49;47.29
28921;BME280;16035;53.594;9.952;2023-08-07T10:11:55;100496.38;;;23.11;45.35
28921;BME280;16035;53.594;9.952;2023-08-07T10:13:57;100494.97;;;22.28;44.48
28921;BME280;16035;53.594;9.952;2023-08-07T10:15:58;100523.84;;;21.48;46.28
28921;BME280;16035;53.594;9.952;2023-08-07T10:17:58;100502.50;;;20.94;47.20
28921;BME280;16035;53.594;9.952;2023-08-07T10:19:59;100495.06;;;21.49;48.08
28921;BME280;16035;53.594;9.952;2023-08-07T10:22:00;100494.47;;;21.56;46.96
28921;BME280;16035;53.594;9.952;2023-08-07T10:24:03;100492.16;;;21.25;47.10
28921;BME280;16035;53.594;9.952;2023-08-07T10:26:06;100499.47;;;21.08;47.11
28921;BME280;16035;53.594;9.952;2023-08-07T10:28:11;100503.16;;;20.91;47.63
28921;BME280;16035;53.594;9.952;2023-08-07T10:30:14;100531.50;;;20.80;47.46
28921;BME280;16035;53.594;9.952;2023-08-07T10:32:20;100509.75;;;20.49;46.84
28921;BME280;16035;53.594;9.952;2023-08-07T10:34:22;100523.19;;;20.20;48.26
28921;BME280;16035;53.594;9.952;2023-08-07T10:36:22;100508.81;;;20.06;48.70